Time;durP1;ratioP1;P1;durP2;ratioP2;P2;SDS_P1;SDS_P2;PMS_P1;PMS_P2;Temp;Humidity;BMP_temperature;BMP_pressure;BME280_temperature;BME280_humidity;BME280_pressure;Samples;Min_cycle;Max_cycle;Signal;HPM_P1;HPM_P2
2023/06/08 00:02:47;;;;;;;8.05;7.25;;;23.40;96.60;;;;;;6205429;28;84062;-70
2023/06/08 00:05:50;;;;;;;9.07;7.50;;;23.40;96.60;;;;;;6192839;28;83000;-70
2023/06/08 00:08:53;;;;;;;7.78;7.07;;;23.40;96.60;;;;;;6205953;28;82877;-70
2023/06/08 00:11:58;;;;;;;9.35;7.53;;;23.40;96.80;;;;;;6205933;28;83349;-70
2023/06/08 00:15:00;;;;;;;11.40;8.07;;;23.40;97.00;;;;;;6197071;28;82919;-70
2023/06/08 00:18:02;;;;;;;9.07;7.50;;;23.40;97.10;;;;;;6205928;28;84117;-71
2023/06/08 00:21:05;;;;;;;10.68;8.07;;;23.40;96.90;;;;;;6189997;28;83544;-71
2023/06/08 00:24:08;;;;;;;9.32;8.30;;;23.40;97.30;;;;;;6200330;28;83537;-70
2023/06/08 00:27:10;;;;;;;9.40;7.90;;;23.40;97.20;;;;;;6198692;28;84643;-70
2023/06/08 00:30:13;;;;;;;11.43;8.25;;;23.40;97.20;;;;;;6201156;28;84070;-70
2023/06/08 00:33:15;;;;;;;9.98;8.65;;;23.40;97.10;;;;;;6204921;28;83736;-70
2023/06/08 00:36:18;;;;;;;9.65;8.30;;;23.40;97.00;;;;;;6196815;28;84875;-70
2023/06/08 00:39:21;;;;;;;10.40;8.18;;;23.40;97.00;;;;;;6204541;28;84011;-70
2023/06/08 00:42:23;;;;;;;9.15;8.02;;;23.40;97.00;;;;;;6197110;28;83306;-70
2023/06/08 00:45:25;;;;;;;8.48;7.18;;;23.40;96.70;;;;;;6202677;28;84336;-70
2023/06/08 00:48:27;;;;;;;10.27;8.35;;;23.40;96.60;;;;;;6209281;28;84287;-71
2023/06/08 00:51:34;;;;;;;9.60;8.57;;;23.40;96.60;;;;;;6204085;28;84885;-71
2023/06/08 00:54:39;;;;;;;11.25;8.88;;;23.40;96.60;;;;;;6207145;28;83993;-70
2023/06/08 00:57:41;;;;;;;9.52;8.52;;;23.40;96.80;;;;;;6203147;28;83995;-71
2023/06/08 01:00:44;;;;;;;9.10;8.30;;;23.40;97.10;;;;;;6201961;28;83384;-70
2023/06/08 01:03:46;;;;;;;9.68;8.68;;;23.40;97.10;;;;;;6204397;28;83997;-71
2023/06/08 01:06:53;;;;;;;9.88;8.50;;;23.40;97.40;;;;;;6211720;28;84109;-70
2023/06/08 01:10:00;;;;;;;8.90;8.00;;;23.40;97.20;;;;;;6201107;28;84142;-70
2023/06/08 01:13:14;;;;;;;10.07;8.68;;;23.40;97.00;;;;;;6195941;28;83322;-70
2023/06/08 01:16:17;;;;;;;8.93;8.02;;;23.40;96.80;;;;;;6205315;28;83982;-70
2023/06/08 01:19:33;;;;;;;9.65;8.65;;;23.40;96.60;;;;;;6206211;28;82920;-70
2023/06/08 01:22:56;;;;;;;9.15;8.25;;;23.40;96.40;;;;;;6204945;28;85024;-70
2023/06/08 01:26:00;;;;;;;9.98;8.43;;;23.40;96.30;;;;;;6201348;28;84011;-70
2023/06/08 01:29:02;;;;;;;9.68;8.45;;;23.40;96.10;;;;;;6206383;28;84347;-70
2023/06/08 01:32:05;;;;;;;8.82;8.02;;;23.40;96.00;;;;;;6196593;28;85254;-71
2023/06/08 01:35:08;;;;;;;8.93;8.13;;;23.40;95.80;;;;;;6207265;28;83008;-70
2023/06/08 01:38:18;;;;;;;8.57;7.80;;;23.40;95.70;;;;;;6204155;28;84077;-70
2023/06/08 01:41:31;;;;;;;9.20;8.30;;;23.40;95.70;;;;;;6199642;28;84159;-70
2023/06/08 01:44:37;;;;;;;9.23;8.23;;;23.40;95.50;;;;;;6205796;28;85439;-70
2023/06/08 01:47:41;;;;;;;8.70;7.90;;;23.40;95.50;;;;;;6206680;28;84048;-70
2023/06/08 01:50:44;;;;;;;9.48;8.55;;;23.40;95.40;;;;;;6204477;28;83956;-70
2023/06/08 01:53:46;;;;;;;9.35;8.55;;;23.40;95.30;;;;;;6208536;28;85071;-71
2023/06/08 01:56:50;;;;;;;9.25;8.35;;;23.40;95.20;;;;;;6206752;28;83986;-70
2023/06/08 01:59:52;;;;;;;9.27;8.38;;;23.40;95.10;;;;;;6207658;28;83807;-70
2023/06/08 02:02:54;;;;;;;8.50;7.70;;;23.40;95.00;;;;;;6204065;28;85449;-70
2023/06/08 02:05:56;;;;;;;9.13;8.23;;;23.40;94.90;;;;;;6206085;28;84815;-71
2023/06/08 02:08:58;;;;;;;10.52;8.65;;;23.40;94.90;;;;;;6207049;28;83064;-70
2023/06/08 02:12:07;;;;;;;9.20;7.95;;;23.40;94.90;;;;;;6200495;28;84454;-71
2023/06/08 02:15:09;;;;;;;9.35;8.50;;;23.40;95.00;;;;;;6207844;28;83304;-70
2023/06/08 02:18:13;;;;;;;9.20;8.40;;;23.40;95.00;;;;;;6203694;28;84126;-70
2023/06/08 02:21:15;;;;;;;8.73;7.93;;;23.40;94.90;;;;;;6207493;28;84028;-71
2023/06/08 02:24:18;;;;;;;9.85;8.85;;;23.40;94.80;;;;;;6193578;28;85047;-70
2023/06/08 02:27:21;;;;;;;9.25;8.35;;;23.40;94.60;;;;;;6207572;28;84235;-71
2023/06/08 02:30:23;;;;;;;8.45;7.65;;;23.40;94.60;;;;;;6203476;28;84081;-70
2023/06/08 02:33:25;;;;;;;8.63;7.72;;;23.30;94.60;;;;;;6205370;28;84001;-71
2023/06/08 02:36:31;;;;;;;9.10;8.30;;;23.40;94.60;;;;;;6209136;28;82952;-71
2023/06/08 02:39:33;;;;;;;9.30;8.30;;;23.40;94.50;;;;;;6196090;28;83993;-71
2023/06/08 02:42:37;;;;;;;9.27;7.68;;;23.40;94.40;;;;;;6207068;28;82992;-71
2023/06/08 02:45:39;;;;;;;8.80;7.90;;;23.30;94.30;;;;;;6198893;28;81907;-71
2023/06/08 02:48:41;;;;;;;8.60;7.80;;;23.40;94.30;;;;;;6203538;28;83984;-71
2023/06/08 02:51:44;;;;;;;8.70;7.90;;;23.40;94.20;;;;;;6206006;28;85883;-70
2023/06/08 02:54:46;;;;;;;8.00;7.30;;;23.40;94.20;;;;;;6201892;28;86257;-71
2023/06/08 02:57:50;;;;;;;8.10;7.30;;;23.40;94.10;;;;;;6202795;28;83986;-71
2023/06/08 03:00:54;;;;;;;8.63;7.82;;;23.30;94.00;;;;;;6206427;28;85625;-70
2023/06/08 03:03:56;;;;;;;8.60;7.80;;;23.30;94.00;;;;;;6204052;28;84050;-71
2023/06/08 03:06:58;;;;;;;7.95;7.25;;;23.40;94.00;;;;;;6207445;28;82951;-71
2023/06/08 03:10:01;;;;;;;8.10;7.40;;;23.30;93.80;;;;;;6205518;28;84604;-71
2023/06/08 03:13:04;;;;;;;8.30;7.50;;;23.30;93.80;;;;;;6196820;28;82948;-71
2023/06/08 03:16:06;;;;;;;8.63;7.72;;;23.30;93.70;;;;;;6192565;28;83244;-71
2023/06/08 03:19:08;;;;;;;7.80;7.10;;;23.30;93.60;;;;;;6207188;28;84050;-71
2023/06/08 03:22:10;;;;;;;7.55;6.85;;;23.30;93.60;;;;;;6205789;28;84312;-71
2023/06/08 03:25:15;;;;;;;8.30;7.50;;;23.40;93.60;;;;;;6205583;28;85311;-70
2023/06/08 03:28:18;;;;;;;7.88;7.18;;;23.30;93.50;;;;;;6194654;28;84101;-71
2023/06/08 03:31:20;;;;;;;8.32;6.97;;;23.30;93.50;;;;;;6194206;28;84169;-70
2023/06/08 03:34:25;;;;;;;7.88;7.18;;;23.40;93.80;;;;;;6194759;28;84090;-71
2023/06/08 03:37:27;;;;;;;8.35;7.55;;;23.30;93.80;;;;;;6207170;28;82852;-70
2023/06/08 03:40:29;;;;;;;8.40;7.60;;;23.30;94.00;;;;;;6207577;28;84143;-70
2023/06/08 03:43:32;;;;;;;7.78;7.07;;;23.30;94.10;;;;;;6202183;28;83739;-70
2023/06/08 03:46:34;;;;;;;7.90;7.20;;;23.30;94.30;;;;;;6205121;28;83308;-70
2023/06/08 03:49:36;;;;;;;8.20;7.45;;;23.40;94.30;;;;;;6200514;28;84393;-70
2023/06/08 03:52:39;;;;;;;8.55;7.75;;;23.30;94.20;;;;;;6203777;28;84045;-70
2023/06/08 03:55:41;;;;;;;7.57;6.88;;;23.30;94.20;;;;;;6203819;28;84953;-70
2023/06/08 03:58:45;;;;;;;7.68;7.00;;;23.30;94.20;;;;;;6192683;28;82942;-70
2023/06/08 04:01:47;;;;;;;8.27;7.18;;;23.30;94.20;;;;;;6205175;28;83992;-70
2023/06/08 04:04:49;;;;;;;7.78;7.07;;;23.30;94.10;;;;;;6204504;28;84215;-70
2023/06/08 04:07:51;;;;;;;7.57;6.88;;;23.30;94.00;;;;;;6208862;28;84188;-70
2023/06/08 04:10:53;;;;;;;7.88;7.07;;;23.30;93.90;;;;;;6211392;28;83966;-70
2023/06/08 04:13:57;;;;;;;7.00;6.40;;;23.30;93.80;;;;;;6206061;28;83961;-70
2023/06/08 04:16:59;;;;;;;7.47;6.88;;;23.30;93.70;;;;;;6209555;28;84741;-70
2023/06/08 04:20:01;;;;;;;7.55;6.93;;;23.30;93.70;;;;;;6211596;28;83954;-71
2023/06/08 04:23:06;;;;;;;7.65;7.00;;;23.30;93.60;;;;;;6204812;28;84136;-70
2023/06/08 04:26:08;;;;;;;7.22;6.60;;;23.30;93.60;;;;;;6206775;28;85017;-71
2023/06/08 04:29:13;;;;;;;7.85;7.07;;;23.30;93.80;;;;;;6201217;28;84349;-71
2023/06/08 04:32:15;;;;;;;7.18;6.53;;;23.30;93.80;;;;;;6207230;28;84055;-70
2023/06/08 04:35:17;;;;;;;7.95;7.18;;;23.30;93.80;;;;;;6202076;28;84414;-70
2023/06/08 04:38:20;;;;;;;7.28;6.57;;;23.30;93.70;;;;;;6207454;28;84735;-70
2023/06/08 04:41:25;;;;;;;6.82;6.22;;;23.30;93.60;;;;;;6204819;28;84198;-70
2023/06/08 04:44:31;;;;;;;7.22;6.57;;;23.30;93.60;;;;;;6205272;28;82632;-71
2023/06/08 04:47:35;;;;;;;6.95;6.30;;;23.30;93.60;;;;;;6204865;28;83340;-71
2023/06/08 04:50:37;;;;;;;7.10;6.45;;;23.30;93.60;;;;;;6211369;28;82982;-71
2023/06/08 04:53:42;;;;;;;8.07;7.38;;;23.30;93.70;;;;;;6202794;28;84344;-71
2023/06/08 04:56:45;;;;;;;7.55;6.80;;;23.30;93.70;;;;;;6202675;28;85005;-71
2023/06/08 04:59:48;;;;;;;7.05;6.15;;;23.30;93.70;;;;;;6201521;28;82895;-70
2023/06/08 05:02:50;;;;;;;7.25;6.65;;;23.30;93.80;;;;;;6200082;28;84172;-70
2023/06/08 05:05:52;;;;;;;7.15;6.47;;;23.30;94.20;;;;;;6210725;28;82895;-70
2023/06/08 05:08:54;;;;;;;6.63;6.10;;;23.30;94.20;;;;;;6210840;28;84382;-70
2023/06/08 05:11:56;;;;;;;6.68;6.07;;;23.30;94.00;;;;;;6202056;28;82893;-70
2023/06/08 05:15:02;;;;;;;7.25;6.65;;;23.30;94.00;;;;;;6207728;28;84065;-70
2023/06/08 05:18:04;;;;;;;7.10;6.45;;;23.30;94.00;;;;;;6204912;28;82963;-70
2023/06/08 05:21:07;;;;;;;10.55;7.07;;;23.30;94.00;;;;;;6204559;28;84001;-70
2023/06/08 05:24:09;;;;;;;7.80;7.00;;;23.30;94.10;;;;;;6208005;28;84119;-70
2023/06/08 05:27:11;;;;;;;6.85;6.18;;;23.30;94.10;;;;;;6210414;28;85311;-70
2023/06/08 05:30:14;;;;;;;7.10;6.50;;;23.30;94.20;;;;;;6200028;28;83451;-69
2023/06/08 05:33:16;;;;;;;7.38;6.75;;;23.30;94.30;;;;;;6206926;28;82649;-71
2023/06/08 05:36:19;;;;;;;7.28;6.30;;;23.30;94.40;;;;;;6205824;28;84047;-70
2023/06/08 05:39:21;;;;;;;7.25;6.55;;;23.30;94.60;;;;;;6205817;28;84395;-70
2023/06/08 05:42:23;;;;;;;7.57;6.88;;;23.30;94.60;;;;;;6206697;28;84094;-70
2023/06/08 05:45:26;;;;;;;7.13;6.45;;;23.30;94.80;;;;;;6202276;28;84284;-70
2023/06/08 05:48:28;;;;;;;7.68;6.93;;;23.30;95.00;;;;;;6199477;28;83088;-70
2023/06/08 05:51:30;;;;;;;7.40;6.55;;;23.30;95.00;;;;;;6209629;28;83957;-70
2023/06/08 05:54:32;;;;;;;6.82;5.97;;;23.30;95.20;;;;;;6200018;28;84048;-70
2023/06/08 05:57:34;;;;;;;7.20;6.60;;;23.30;95.20;;;;;;6207395;28;85176;-70
2023/06/08 06:00:37;;;;;;;6.70;6.10;;;23.30;95.20;;;;;;6209754;28;84475;-70
2023/06/08 06:03:41;;;;;;;6.78;6.18;;;23.30;95.30;;;;;;6203887;28;84101;-71
2023/06/08 06:06:44;;;;;;;6.65;6.15;;;23.30;95.30;;;;;;6208510;28;84056;-70
2023/06/08 06:09:46;;;;;;;7.72;6.93;;;23.30;95.80;;;;;;6207499;28;84043;-70
2023/06/08 06:12:48;;;;;;;7.43;6.70;;;23.30;95.50;;;;;;6198428;28;84056;-70
2023/06/08 06:15:51;;;;;;;7.20;6.60;;;23.30;95.60;;;;;;6208815;28;84085;-70
2023/06/08 06:18:53;;;;;;;8.10;7.30;;;23.30;95.80;;;;;;6209205;28;83791;-70
2023/06/08 06:21:55;;;;;;;7.70;6.90;;;23.30;96.10;;;;;;6201326;28;84140;-71
2023/06/08 06:24:57;;;;;;;7.00;6.40;;;23.30;96.40;;;;;;6205906;28;84613;-70
2023/06/08 06:27:59;;;;;;;8.10;7.30;;;23.20;96.60;;;;;;6203259;28;84970;-70
2023/06/08 06:31:02;;;;;;;6.53;5.97;;;23.20;96.60;;;;;;6191572;28;84048;-71
2023/06/08 06:34:04;;;;;;;7.10;6.50;;;23.20;96.80;;;;;;6205060;28;84018;-70
2023/06/08 06:37:06;;;;;;;7.40;6.78;;;23.20;97.00;;;;;;6206090;28;83340;-70
2023/06/08 06:40:09;;;;;;;6.78;6.18;;;23.20;97.10;;;;;;6208207;28;82927;-70
2023/06/08 06:43:11;;;;;;;6.97;6.35;;;23.20;97.10;;;;;;6194148;28;82937;-69
2023/06/08 06:46:19;;;;;;;6.75;6.15;;;23.20;97.20;;;;;;6201459;28;84555;-69
2023/06/08 06:49:21;;;;;;;7.05;6.45;;;23.20;97.30;;;;;;6201000;28;83247;-70
2023/06/08 06:52:23;;;;;;;7.57;6.88;;;23.20;97.60;;;;;;6200342;28;83986;-71
2023/06/08 06:55:25;;;;;;;7.55;6.85;;;23.20;97.60;;;;;;6207147;28;84043;-70
2023/06/08 06:58:27;;;;;;;8.25;7.47;;;23.20;97.60;;;;;;6202941;28;85105;-71
2023/06/08 07:01:35;;;;;;;7.00;6.28;;;23.20;98.00;;;;;;6202245;28;84266;-70
2023/06/08 07:04:38;;;;;;;8.02;7.22;;;23.20;98.10;;;;;;6202028;28;84270;-70
2023/06/08 07:07:40;;;;;;;7.20;6.60;;;23.20;98.30;;;;;;6205792;28;83739;-70
2023/06/08 07:10:42;;;;;;;7.45;6.80;;;23.10;98.20;;;;;;6201372;28;82952;-72
2023/06/08 07:13:44;;;;;;;6.90;6.30;;;23.20;98.30;;;;;;6201113;28;83382;-69
2023/06/08 07:16:47;;;;;;;8.45;7.68;;;23.20;98.40;;;;;;6201366;28;84226;-70
2023/06/08 07:19:52;;;;;;;8.43;7.63;;;23.20;98.70;;;;;;6201452;28;82173;-70
2023/06/08 07:22:55;;;;;;;7.85;7.15;;;23.20;99.40;;;;;;6212360;28;84483;-70
2023/06/08 07:25:57;;;;;;;8.35;7.55;;;23.10;99.60;;;;;;6204214;28;85409;-70
2023/06/08 07:28:59;;;;;;;7.43;6.72;;;23.10;99.60;;;;;;6198495;28;84952;-69
2023/06/08 07:32:02;;;;;;;7.72;7.03;;;23.10;99.40;;;;;;6195544;28;83288;-69
2023/06/08 07:35:05;;;;;;;6.72;6.18;;;23.10;99.50;;;;;;6198462;28;84000;-69
2023/06/08 07:38:07;;;;;;;8.25;7.35;;;23.10;99.50;;;;;;6206075;28;84239;-67
2023/06/08 07:41:09;;;;;;;6.70;6.20;;;23.10;99.80;;;;;;6191251;28;84230;-70
2023/06/08 07:44:11;;;;;;;6.78;6.13;;;23.10;99.90;;;;;;6210064;28;82932;-71
2023/06/08 07:47:15;;;;;;;6.35;5.85;;;23.10;99.90;;;;;;6212419;28;83954;-71
2023/06/08 07:50:17;;;;;;;6.32;5.82;;;23.10;99.90;;;;;;6210188;28;81958;-70
2023/06/08 07:53:21;;;;;;;6.32;5.72;;;23.20;99.90;;;;;;6213688;28;84135;-70
2023/06/08 07:56:23;;;;;;;6.45;5.85;;;23.20;99.90;;;;;;6209653;28;83112;-71
2023/06/08 07:59:25;;;;;;;6.68;5.97;;;23.20;99.90;;;;;;6203251;28;84966;-71
2023/06/08 08:02:28;;;;;;;6.80;6.20;;;23.20;99.90;;;;;;6207256;28;84018;-70
2023/06/08 08:05:31;;;;;;;5.93;5.43;;;23.30;99.80;;;;;;6210308;28;84089;-68
2023/06/08 08:08:33;;;;;;;6.25;5.75;;;23.30;99.50;;;;;;6208714;28;84348;-67
2023/06/08 08:11:36;;;;;;;5.95;5.45;;;23.30;99.40;;;;;;6197085;28;84494;-69
2023/06/08 08:14:39;;;;;;;6.70;6.10;;;23.30;99.30;;;;;;6210340;28;84307;-69
2023/06/08 08:17:42;;;;;;;5.90;5.40;;;23.30;99.30;;;;;;6211274;28;83019;-68
2023/06/08 08:20:44;;;;;;;5.85;5.35;;;23.30;99.20;;;;;;6198731;28;83385;-69
2023/06/08 08:23:48;;;;;;;6.03;5.53;;;23.30;99.10;;;;;;6211347;28;84389;-69
2023/06/08 08:26:54;;;;;;;6.22;5.72;;;23.30;99.30;;;;;;6202891;28;83903;-72
2023/06/08 08:29:56;;;;;;;6.68;5.88;;;23.30;99.20;;;;;;6204003;28;83941;-69
2023/06/08 08:33:00;;;;;;;6.03;5.43;;;23.30;99.20;;;;;;6209396;28;83963;-69
2023/06/08 08:36:02;;;;;;;7.43;6.53;;;23.40;99.20;;;;;;6206441;28;84082;-69
2023/06/08 08:39:04;;;;;;;8.50;5.63;;;23.40;99.30;;;;;;6195754;28;84929;-69
2023/06/08 08:42:11;;;;;;;7.22;5.43;;;23.30;99.00;;;;;;6211873;28;84351;-69
2023/06/08 08:45:15;;;;;;;9.70;6.35;;;23.30;98.80;;;;;;6199254;28;84347;-69
2023/06/08 08:48:22;;;;;;;16.85;8.77;;;23.40;99.90;;;;;;6203906;28;84090;-69
2023/06/08 08:51:25;;;;;;;16.42;8.45;;;23.40;99.90;;;;;;6204666;28;83561;-69
2023/06/08 08:54:33;;;;;;;13.27;7.50;;;23.40;99.90;;;;;;6205438;28;84030;-70
2023/06/08 08:57:36;;;;;;;19.67;9.35;;;23.30;99.90;;;;;;6203002;28;83827;-69
2023/06/08 09:00:39;;;;;;;19.40;9.65;;;23.40;99.90;;;;;;6205104;28;84894;-69
2023/06/08 09:03:42;;;;;;;15.02;8.93;;;23.30;99.90;;;;;;6207063;28;84299;-70
2023/06/08 09:06:48;;;;;;;15.73;8.98;;;23.30;99.90;;;;;;6205877;28;84059;-69
2023/06/08 09:10:15;;;;;;;13.40;7.80;;;23.40;99.90;;;;;;6206985;28;84183;-69
2023/06/08 09:13:21;;;;;;;11.82;7.15;;;23.30;99.90;;;;;;6199909;28;83344;-69
2023/06/08 09:16:24;;;;;;;15.02;7.38;;;23.40;99.90;;;;;;6207015;28;83752;-69
2023/06/08 09:19:28;;;;;;;16.63;8.73;;;23.40;99.90;;;;;;6207347;28;83977;-70
2023/06/08 09:22:30;;;;;;;17.75;9.18;;;23.40;99.90;;;;;;6195083;28;83370;-70
2023/06/08 09:25:38;;;;;;;26.33;11.10;;;23.40;99.90;;;;;;6199023;28;84208;-70
2023/06/08 09:28:40;;;;;;;25.50;11.57;;;23.40;99.90;;;;;;6199925;28;86156;-71
2023/06/08 09:31:50;;;;;;;20.38;9.80;;;23.40;99.90;;;;;;6203795;28;84048;-70
2023/06/08 09:34:55;;;;;;;17.30;8.80;;;23.40;99.90;;;;;;6204435;28;83860;-71
2023/06/08 09:38:18;;;;;;;15.05;8.65;;;23.40;99.90;;;;;;6206969;28;84021;-70
2023/06/08 09:41:21;;;;;;;15.50;8.70;;;23.40;99.90;;;;;;6206018;28;84237;-70
2023/06/08 09:44:23;;;;;;;11.50;7.78;;;23.50;99.90;;;;;;6204045;28;84078;-70
2023/06/08 09:47:27;;;;;;;13.25;7.65;;;23.50;99.90;;;;;;6203997;28;84052;-70
2023/06/08 09:50:30;;;;;;;14.25;8.25;;;23.50;99.90;;;;;;6206558;28;84328;-71
2023/06/08 09:53:34;;;;;;;9.93;7.57;;;23.50;99.90;;;;;;6202405;28;83356;-71
2023/06/08 09:56:38;;;;;;;12.63;7.22;;;23.50;99.90;;;;;;6197749;28;84175;-71
2023/06/08 09:59:46;;;;;;;14.07;7.78;;;23.50;99.90;;;;;;6197811;28;83325;-70
2023/06/08 10:02:57;;;;;;;10.85;7.40;;;23.50;99.90;;;;;;6206746;28;84838;-70
2023/06/08 10:06:02;;;;;;;10.70;7.15;;;23.60;99.90;;;;;;6195220;28;84171;-71
2023/06/08 10:09:06;;;;;;;8.57;6.72;;;23.70;99.90;;;;;;6204355;28;84028;-71
2023/06/08 10:12:09;;;;;;;10.70;7.15;;;23.70;99.90;;;;;;6207728;28;83922;-71
2023/06/08 10:15:12;;;;;;;9.32;7.32;;;23.80;99.90;;;;;;6208399;28;84476;-70
2023/06/08 10:18:15;;;;;;;8.50;6.90;;;23.90;99.90;;;;;;6202347;28;84331;-71
2023/06/08 10:21:19;;;;;;;10.55;6.97;;;23.90;99.90;;;;;;6198356;28;84517;-70
2023/06/08 10:24:25;;;;;;;10.55;7.10;;;23.90;99.90;;;;;;6202610;28;84418;-70
2023/06/08 10:27:32;;;;;;;9.93;7.28;;;23.90;99.90;;;;;;6202997;28;83890;-70
2023/06/08 10:30:39;;;;;;;9.95;7.00;;;23.80;99.90;;;;;;6204564;28;83946;-69
2023/06/08 10:33:41;;;;;;;8.18;6.60;;;23.80;99.90;;;;;;6207109;28;85019;-72
2023/06/08 10:36:46;;;;;;;8.15;6.40;;;23.80;99.90;;;;;;6200715;28;84025;-71
2023/06/08 10:39:48;;;;;;;7.30;6.60;;;23.80;99.90;;;;;;6208300;28;83905;-70
2023/06/08 10:42:55;;;;;;;8.52;6.47;;;23.90;99.90;;;;;;6207283;28;84120;-71
2023/06/08 10:45:59;;;;;;;9.77;6.70;;;23.80;99.90;;;;;;6206797;28;83982;-71
2023/06/08 10:49:04;;;;;;;7.28;6.47;;;23.80;99.90;;;;;;6199499;28;82773;-69
2023/06/08 10:52:09;;;;;;;7.75;6.50;;;23.80;99.90;;;;;;6205594;28;84601;-69
2023/06/08 10:55:13;;;;;;;6.80;6.20;;;23.80;99.90;;;;;;6201072;28;83593;-69
2023/06/08 10:58:19;;;;;;;7.13;6.43;;;23.70;99.90;;;;;;6204466;28;83745;-69
2023/06/08 11:01:24;;;;;;;7.20;6.50;;;23.70;99.90;;;;;;6201054;28;83798;-69
2023/06/08 11:04:28;;;;;;;6.78;6.18;;;23.70;99.90;;;;;;6203654;28;85077;-70
2023/06/08 11:07:31;;;;;;;6.90;6.20;;;23.70;99.90;;;;;;6201025;28;84275;-69
2023/06/08 11:10:33;;;;;;;6.68;6.07;;;23.70;99.90;;;;;;6202643;28;84109;-70
2023/06/08 11:13:35;;;;;;;6.97;6.32;;;23.70;99.90;;;;;;6200172;28;84013;-70
2023/06/08 11:16:37;;;;;;;7.13;6.43;;;23.70;99.90;;;;;;6201778;28;84048;-69
2023/06/08 11:19:39;;;;;;;6.72;6.13;;;23.70;99.90;;;;;;6205800;28;84395;-70
2023/06/08 11:22:43;;;;;;;6.80;6.20;;;23.70;99.90;;;;;;6191701;28;84164;-69
2023/06/08 11:25:46;;;;;;;7.20;5.78;;;23.70;99.90;;;;;;6208569;28;83285;-70
2023/06/08 11:28:50;;;;;;;7.50;6.07;;;23.70;99.90;;;;;;6207167;28;83956;-70
2023/06/08 11:31:53;;;;;;;6.30;5.70;;;23.70;99.90;;;;;;6199697;28;84080;-70
2023/06/08 11:34:55;;;;;;;6.22;5.63;;;23.70;99.90;;;;;;6198817;28;84925;-70
2023/06/08 11:38:00;;;;;;;7.22;5.60;;;23.70;99.90;;;;;;6202059;28;84513;-69
2023/06/08 11:41:02;;;;;;;6.65;5.95;;;23.70;99.90;;;;;;6195111;28;83942;-70
2023/06/08 11:44:04;;;;;;;6.40;5.80;;;23.70;99.90;;;;;;6206364;28;84146;-70
2023/06/08 11:47:08;;;;;;;6.80;6.18;;;23.70;99.90;;;;;;6202910;28;84117;-70
2023/06/08 11:50:11;;;;;;;6.70;6.07;;;23.60;99.90;;;;;;6196668;28;83792;-70
2023/06/08 11:53:16;;;;;;;6.60;5.90;;;23.60;99.90;;;;;;6204438;28;84147;-70
2023/06/08 11:56:18;;;;;;;5.93;5.38;;;23.60;99.90;;;;;;6207470;28;83280;-70
2023/06/08 11:59:25;;;;;;;6.43;5.82;;;23.60;99.90;;;;;;6205339;28;84085;-70
2023/06/08 12:02:27;;;;;;;6.72;5.78;;;23.70;99.90;;;;;;6193840;28;82932;-70
2023/06/08 12:05:32;;;;;;;5.82;5.30;;;23.70;99.90;;;;;;6192884;28;85548;-70
2023/06/08 12:08:36;;;;;;;5.70;5.20;;;23.60;99.90;;;;;;6203283;28;84320;-70
2023/06/08 12:11:38;;;;;;;5.97;5.40;;;23.70;99.90;;;;;;6205815;28;84076;-70
2023/06/08 12:14:44;;;;;;;6.70;5.97;;;23.60;99.90;;;;;;6204328;28;84513;-69
2023/06/08 12:17:46;;;;;;;6.57;5.75;;;23.60;99.90;;;;;;6205150;28;85251;-70
2023/06/08 12:20:53;;;;;;;6.50;5.90;;;23.60;99.90;;;;;;6208034;28;84082;-70
2023/06/08 12:23:57;;;;;;;5.88;5.38;;;23.60;99.90;;;;;;6198619;28;84079;-69
2023/06/08 12:26:59;;;;;;;6.03;5.53;;;23.60;99.90;;;;;;6205961;28;82289;-70
2023/06/08 12:30:01;;;;;;;6.07;5.47;;;23.60;99.90;;;;;;6210761;28;83243;-70
2023/06/08 12:33:03;;;;;;;5.55;5.05;;;23.60;99.90;;;;;;6210389;28;85514;-70
2023/06/08 12:36:05;;;;;;;5.80;5.30;;;23.60;99.90;;;;;;6208117;28;85056;-70
2023/06/08 12:39:09;;;;;;;6.05;5.50;;;23.60;99.90;;;;;;6209929;28;82233;-69
2023/06/08 12:42:11;;;;;;;6.82;6.20;;;23.60;99.90;;;;;;6209329;28;83995;-70
2023/06/08 12:45:14;;;;;;;5.85;5.40;;;23.60;99.90;;;;;;6211263;28;84224;-70
2023/06/08 12:48:16;;;;;;;6.30;5.75;;;23.60;99.90;;;;;;6211458;28;83985;-70
2023/06/08 12:51:18;;;;;;;5.90;5.32;;;23.60;99.90;;;;;;6209572;28;84122;-70
2023/06/08 12:54:21;;;;;;;5.93;5.25;;;23.60;99.90;;;;;;6206617;28;84307;-70
2023/06/08 12:57:23;;;;;;;6.03;5.43;;;23.60;99.90;;;;;;6205968;28;83283;-70
2023/06/08 13:00:25;;;;;;;5.50;5.10;;;23.60;99.90;;;;;;6208823;28;83925;-70
2023/06/08 13:03:27;;;;;;;5.90;5.38;;;23.60;99.90;;;;;;6208280;28;82827;-70
2023/06/08 13:06:29;;;;;;;6.32;5.72;;;23.60;99.90;;;;;;6208366;28;85048;-70
2023/06/08 13:09:32;;;;;;;5.75;5.25;;;23.60;99.90;;;;;;6206174;28;84056;-70
2023/06/08 13:12:34;;;;;;;6.03;5.53;;;23.60;99.90;;;;;;6201119;28;84299;-70
2023/06/08 13:15:38;;;;;;;5.65;5.18;;;23.60;99.90;;;;;;6204493;28;84411;-70
2023/06/08 13:18:41;;;;;;;5.63;5.13;;;23.60;99.90;;;;;;6201119;28;84073;-70
2023/06/08 13:21:43;;;;;;;5.45;4.85;;;23.60;99.90;;;;;;6199827;28;83077;-70
2023/06/08 13:24:46;;;;;;;5.80;5.30;;;23.60;99.90;;;;;;6208732;28;82934;-70
2023/06/08 13:27:48;;;;;;;6.00;5.50;;;23.60;99.90;;;;;;6210006;28;83133;-70
2023/06/08 13:30:50;;;;;;;5.88;5.38;;;23.60;99.90;;;;;;6208153;28;83994;-69
2023/06/08 13:33:52;;;;;;;6.20;5.65;;;23.60;99.90;;;;;;6208046;28;83068;-70
2023/06/08 13:36:54;;;;;;;5.55;5.05;;;23.60;99.90;;;;;;6204952;28;83951;-69
2023/06/08 13:39:58;;;;;;;6.32;5.78;;;23.60;99.90;;;;;;6205040;28;85339;-70
2023/06/08 13:43:00;;;;;;;5.22;4.82;;;23.60;99.90;;;;;;6204748;28;85355;-70
2023/06/08 13:46:03;;;;;;;6.10;5.40;;;23.70;99.90;;;;;;6204091;28;83777;-70
2023/06/08 13:49:06;;;;;;;5.85;5.35;;;23.60;99.90;;;;;;6209412;28;84072;-70
2023/06/08 13:52:08;;;;;;;6.20;5.40;;;23.60;99.90;;;;;;6204345;28;84011;-70
2023/06/08 13:55:11;;;;;;;6.30;5.70;;;23.60;99.90;;;;;;6207559;28;84008;-70
2023/06/08 13:58:14;;;;;;;6.30;5.70;;;23.60;99.90;;;;;;6209727;28;82248;-70
2023/06/08 14:01:16;;;;;;;6.38;5.75;;;23.60;99.90;;;;;;6209128;28;84263;-70
2023/06/08 14:04:18;;;;;;;5.68;5.22;;;23.60;99.90;;;;;;6190095;28;83962;-71
2023/06/08 14:07:20;;;;;;;6.43;5.50;;;23.60;99.90;;;;;;6198502;28;84254;-70
2023/06/08 14:10:23;;;;;;;6.00;5.50;;;23.60;99.90;;;;;;6206690;28;84102;-71
2023/06/08 14:13:26;;;;;;;6.07;5.55;;;23.60;99.90;;;;;;6208237;28;84006;-70
2023/06/08 14:16:28;;;;;;;6.05;5.38;;;23.60;99.90;;;;;;6207288;28;84015;-71
2023/06/08 14:19:30;;;;;;;8.02;5.88;;;23.70;99.90;;;;;;6204748;28;84211;-71
2023/06/08 14:22:32;;;;;;;7.20;6.38;;;23.60;99.90;;;;;;6209181;28;84052;-70
2023/06/08 14:25:36;;;;;;;7.28;5.88;;;23.70;99.90;;;;;;6211740;28;84371;-70
2023/06/08 14:28:38;;;;;;;6.32;5.72;;;23.60;99.90;;;;;;6210133;28;83137;-70
2023/06/08 14:31:40;;;;;;;6.68;5.35;;;23.70;99.90;;;;;;6205123;28;84044;-70
2023/06/08 14:34:42;;;;;;;5.82;5.15;;;23.60;99.90;;;;;;6202035;28;84440;-70
2023/06/08 14:37:44;;;;;;;7.70;5.20;;;23.70;99.90;;;;;;6192163;28;84973;-70
2023/06/08 14:40:47;;;;;;;8.13;5.78;;;23.70;99.90;;;;;;6201573;28;83130;-71
2023/06/08 14:43:51;;;;;;;6.60;5.90;;;23.70;99.90;;;;;;6207426;28;84004;-71
2023/06/08 14:46:53;;;;;;;8.32;5.53;;;23.70;99.90;;;;;;6204684;28;84378;-70
2023/06/08 14:49:56;;;;;;;8.40;5.88;;;23.70;99.90;;;;;;6194177;28;84213;-71
2023/06/08 14:52:58;;;;;;;6.55;5.85;;;23.70;99.90;;;;;;6196427;28;84223;-70
2023/06/08 14:56:02;;;;;;;7.18;6.22;;;23.70;99.90;;;;;;6200851;28;82871;-71
2023/06/08 14:59:04;;;;;;;6.75;5.80;;;23.80;99.90;;;;;;6201179;28;82259;-71
2023/06/08 15:02:06;;;;;;;6.93;5.65;;;23.80;99.90;;;;;;6199850;28;84406;-71
2023/06/08 15:05:09;;;;;;;6.70;5.75;;;23.90;99.90;;;;;;6203085;28;84008;-71
2023/06/08 15:08:11;;;;;;;8.93;6.07;;;23.80;99.90;;;;;;6194307;28;84945;-71
2023/06/08 15:11:17;;;;;;;8.30;6.05;;;23.80;99.90;;;;;;6205193;28;84048;-71
2023/06/08 15:14:19;;;;;;;8.05;5.40;;;23.90;99.90;;;;;;6205432;28;84199;-70
2023/06/08 15:17:21;;;;;;;5.97;5.45;;;23.90;99.90;;;;;;6191903;28;83042;-71
2023/06/08 15:20:23;;;;;;;6.55;5.65;;;23.90;99.90;;;;;;6202686;28;83254;-71
2023/06/08 15:23:26;;;;;;;8.15;6.10;;;23.90;99.90;;;;;;6201578;28;85178;-71
2023/06/08 15:26:29;;;;;;;6.30;5.22;;;23.90;99.90;;;;;;6201043;28;84030;-71
2023/06/08 15:29:31;;;;;;;6.97;5.75;;;24.00;99.90;;;;;;6201331;28;83607;-70
2023/06/08 15:32:34;;;;;;;6.07;5.47;;;23.90;99.90;;;;;;6197483;28;84148;-71
2023/06/08 15:35:37;;;;;;;7.57;5.82;;;23.90;99.90;;;;;;6201529;28;82910;-71
2023/06/08 15:38:39;;;;;;;6.25;5.40;;;23.90;99.90;;;;;;6196333;28;85130;-71
2023/06/08 15:41:43;;;;;;;6.35;5.65;;;24.00;99.90;;;;;;6202166;28;84534;-71
2023/06/08 15:44:45;;;;;;;6.15;5.55;;;23.90;99.90;;;;;;6202586;28;84369;-71
2023/06/08 15:47:47;;;;;;;5.85;5.28;;;24.00;99.90;;;;;;6204925;28;83240;-70
2023/06/08 15:50:49;;;;;;;6.13;5.38;;;24.00;99.90;;;;;;6201080;28;83119;-70
2023/06/08 15:53:51;;;;;;;6.82;5.70;;;24.00;99.90;;;;;;6197788;28;83801;-71